sensor_id;sensor_type;location;lat;lon;timestamp;P1;durP1;ratioP1;P2;durP2;ratioP2
37645;SDS011;23489;49.600;6.138;2023-09-07T00:00:46;9.02;;;4.45;;
37645;SDS011;23489;49.600;6.138;2023-09-07T00:03:12;4.38;;;3.83;;
37645;SDS011;23489;49.600;6.138;2023-09-07T00:05:38;5.13;;;4.15;;
37645;SDS011;23489;49.600;6.138;2023-09-07T00:08:04;6.22;;;4.53;;
37645;SDS011;23489;49.600;6.138;2023-09-07T00:10:30;4.63;;;3.80;;
37645;SDS011;23489;49.600;6.138;2023-09-07T00:12:57;5.78;;;4.28;;
37645;SDS011;23489;49.600;6.138;2023-09-07T00:15:22;5.88;;;4.28;;
37645;SDS011;23489;49.600;6.138;2023-09-07T00:17:48;4.75;;;3.92;;
37645;SDS011;23489;49.600;6.138;2023-09-07T00:20:16;5.57;;;3.80;;
37645;SDS011;23489;49.600;6.138;2023-09-07T00:22:42;6.28;;;3.88;;
37645;SDS011;23489;49.600;6.138;2023-09-07T00:25:08;6.75;;;4.43;;
37645;SDS011;23489;49.600;6.138;2023-09-07T00:27:34;4.72;;;4.05;;
37645;SDS011;23489;49.600;6.138;2023-09-07T00:30:00;6.60;;;4.38;;
37645;SDS011;23489;49.600;6.138;2023-09-07T00:32:26;5.20;;;4.03;;
37645;SDS011;23489;49.600;6.138;2023-09-07T00:34:51;5.05;;;4.32;;
37645;SDS011;23489;49.600;6.138;2023-09-07T00:37:17;6.32;;;4.28;;
37645;SDS011;23489;49.600;6.138;2023-09-07T00:39:43;7.40;;;4.55;;
37645;SDS011;23489;49.600;6.138;2023-09-07T00:42:08;6.30;;;4.50;;
37645;SDS011;23489;49.600;6.138;2023-09-07T00:44:34;7.00;;;5.10;;
37645;SDS011;23489;49.600;6.138;2023-09-07T00:46:59;7.85;;;4.78;;
37645;SDS011;23489;49.600;6.138;2023-09-07T00:49:25;5.75;;;4.38;;
37645;SDS011;23489;49.600;6.138;2023-09-07T00:51:51;8.18;;;4.28;;
37645;SDS011;23489;49.600;6.138;2023-09-07T00:54:17;7.22;;;4.63;;
37645;SDS011;23489;49.600;6.138;2023-09-07T00:56:44;5.88;;;4.50;;
37645;SDS011;23489;49.600;6.138;2023-09-07T00:59:10;8.27;;;5.20;;
37645;SDS011;23489;49.600;6.138;2023-09-07T01:01:36;6.15;;;4.50;;
37645;SDS011;23489;49.600;6.138;2023-09-07T01:04:02;6.53;;;4.93;;
37645;SDS011;23489;49.600;6.138;2023-09-07T01:06:35;5.45;;;4.45;;
37645;SDS011;23489;49.600;6.138;2023-09-07T01:09:14;5.15;;;4.28;;
37645;SDS011;23489;49.600;6.138;2023-09-07T01:11:44;5.18;;;4.68;;
37645;SDS011;23489;49.600;6.138;2023-09-07T01:14:09;6.53;;;4.95;;
37645;SDS011;23489;49.600;6.138;2023-09-07T01:16:35;5.07;;;4.40;;
37645;SDS011;23489;49.600;6.138;2023-09-07T01:19:03;5.95;;;4.60;;
37645;SDS011;23489;49.600;6.138;2023-09-07T01:21:37;6.00;;;4.53;;
37645;SDS011;23489;49.600;6.138;2023-09-07T01:24:04;8.45;;;4.82;;
37645;SDS011;23489;49.600;6.138;2023-09-07T01:26:32;7.95;;;4.65;;
37645;SDS011;23489;49.600;6.138;2023-09-07T01:28:58;5.97;;;4.82;;
37645;SDS011;23489;49.600;6.138;2023-09-07T01:31:25;7.22;;;4.70;;
37645;SDS011;23489;49.600;6.138;2023-09-07T06:42:57;6.57;;;4.22;;
37645;SDS011;23489;49.600;6.138;2023-09-07T06:45:24;6.63;;;4.10;;
37645;SDS011;23489;49.600;6.138;2023-09-07T06:47:50;7.30;;;4.22;;
37645;SDS011;23489;49.600;6.138;2023-09-07T06:50:17;7.60;;;3.67;;
37645;SDS011;23489;49.600;6.138;2023-09-07T06:52:42;6.03;;;3.78;;
37645;SDS011;23489;49.600;6.138;2023-09-07T06:55:08;9.70;;;4.07;;
37645;SDS011;23489;49.600;6.138;2023-09-07T06:57:34;5.13;;;3.58;;
37645;SDS011;23489;49.600;6.138;2023-09-07T07:00:03;6.30;;;3.65;;
37645;SDS011;23489;49.600;6.138;2023-09-07T07:48:54;3.58;;;2.80;;
37645;SDS011;23489;49.600;6.138;2023-09-07T08:03:32;2.97;;;2.40;;
37645;SDS011;23489;49.600;6.138;2023-09-07T08:08:25;2.67;;;2.47;;
37645;SDS011;23489;49.600;6.138;2023-09-07T08:10:51;3.72;;;2.60;;
37645;SDS011;23489;49.600;6.138;2023-09-07T08:18:12;3.08;;;2.60;;
37645;SDS011;23489;49.600;6.138;2023-09-07T08:28:00;2.85;;;2.58;;
37645;SDS011;23489;49.600;6.138;2023-09-07T08:30:30;4.88;;;2.70;;
37645;SDS011;23489;49.600;6.138;2023-09-07T08:32:56;2.88;;;2.67;;
37645;SDS011;23489;49.600;6.138;2023-09-07T08:37:53;3.40;;;2.55;;
37645;SDS011;23489;49.600;6.138;2023-09-07T08:40:20;3.40;;;2.55;;
